createdAt,value
2019-03-17T00:01:33.821Z,70.50
2019-03-17T00:04:02.835Z,71.35
2019-03-17T00:06:31.877Z,71.26
2019-03-17T00:09:00.887Z,71.33
2019-03-17T00:11:29.923Z,71.72
2019-03-17T00:13:59.325Z,71.55
2019-03-17T00:16:28.735Z,71.39
2019-03-17T00:18:57.749Z,71.13
2019-03-17T00:21:26.783Z,71.13
2019-03-17T00:23:56.089Z,71.18
2019-03-17T00:26:25.127Z,71.28
2019-03-17T00:28:54.139Z,71.46
2019-03-17T00:31:24.411Z,71.87
2019-03-17T00:33:53.469Z,71.93
2019-03-17T00:36:22.887Z,71.57
2019-03-17T00:38:51.917Z,72.01
2019-03-17T00:41:21.313Z,72.62
2019-03-17T00:43:50.334Z,73.00
2019-03-17T00:46:19.359Z,72.47
2019-03-17T00:48:48.707Z,72.88
2019-03-17T00:51:17.715Z,72.47
2019-03-17T00:53:46.736Z,73.32
2019-03-17T00:56:15.987Z,73.17
2019-03-17T00:58:44.983Z,73.64
2019-03-17T01:01:14.025Z,73.84
2019-03-17T01:03:43.056Z,74.23
2019-03-17T01:06:12.075Z,74.13
2019-03-17T01:08:41.498Z,73.86
2019-03-17T01:11:11.053Z,73.93
2019-03-17T01:13:40.051Z,74.26
2019-03-17T01:16:09.422Z,73.88
2019-03-17T01:18:38.875Z,74.71
2019-03-17T01:21:08.221Z,74.99
2019-03-17T01:23:37.272Z,74.73
2019-03-17T01:26:06.973Z,75.17
2019-03-17T01:28:36.276Z,75.29
2019-03-17T01:31:05.349Z,75.44
2019-03-17T01:33:34.374Z,75.78
2019-03-17T01:36:03.395Z,75.19
2019-03-17T01:38:32.432Z,75.97
2019-03-17T01:41:01.448Z,75.71
2019-03-17T01:43:30.513Z,75.33
2019-03-17T01:45:59.566Z,75.99
2019-03-17T01:48:28.593Z,76.09
2019-03-17T01:50:57.977Z,76.55
2019-03-17T01:53:27.022Z,76.94
2019-03-17T01:55:56.454Z,77.33
2019-03-17T01:58:25.534Z,77.98
2019-03-17T02:00:54.545Z,78.20
2019-03-17T02:03:23.677Z,78.25
2019-03-17T02:05:53.325Z,78.53
2019-03-17T02:08:22.381Z,79.45
2019-03-17T02:10:51.374Z,80.60
2019-03-17T02:13:20.468Z,81.61
2019-03-17T02:15:49.859Z,81.81
2019-03-17T02:18:19.516Z,81.55
2019-03-17T02:20:49.236Z,82.37
2019-03-17T02:23:18.533Z,82.59
2019-03-17T02:25:47.574Z,84.11
2019-03-17T02:28:17.038Z,83.47
2019-03-17T02:30:46.059Z,83.07
2019-03-17T02:33:15.092Z,83.58
2019-03-17T02:35:44.435Z,83.39
2019-03-17T02:38:13.429Z,83.96
2019-03-17T02:40:42.858Z,83.84
2019-03-17T02:43:12.240Z,84.16
2019-03-17T02:45:41.304Z,84.61
2019-03-17T02:48:10.275Z,84.52
2019-03-17T02:50:39.312Z,85.26
2019-03-17T02:53:08.320Z,85.90
2019-03-17T02:55:37.319Z,85.90
2019-03-17T02:58:06.744Z,86.41
2019-03-17T03:00:35.781Z,85.96
2019-03-17T03:03:05.080Z,87.05
2019-03-17T03:05:34.070Z,87.47
2019-03-17T03:08:03.444Z,87.27
2019-03-17T03:10:32.662Z,87.85
2019-03-17T03:13:01.669Z,87.75
2019-03-17T03:15:31.033Z,88.58
2019-03-17T03:18:00.200Z,89.39
2019-03-17T03:20:29.517Z,89.43
2019-03-17T03:22:58.903Z,89.43
2019-03-17T03:25:27.904Z,90.07
2019-03-17T03:27:57.301Z,90.59
2019-03-17T03:30:26.781Z,91.20
2019-03-17T03:32:55.848Z,91.63
2019-03-17T03:35:24.818Z,89.85
2019-03-17T03:37:53.858Z,89.22
2019-03-17T03:40:23.220Z,89.27
2019-03-17T03:42:52.501Z,88.82
2019-03-17T03:45:21.520Z,89.30
2019-03-17T03:47:51.025Z,89.59
2019-03-17T03:50:20.007Z,89.09
2019-03-17T03:52:49.116Z,88.56
2019-03-17T03:55:18.143Z,88.67
2019-03-17T03:57:47.146Z,88.74
2019-03-17T04:00:17.195Z,88.71
2019-03-17T04:02:46.227Z,88.36
2019-03-17T04:05:15.616Z,88.59
2019-03-17T04:07:44.793Z,87.97
2019-03-17T04:10:13.823Z,87.59
2019-03-17T04:12:42.829Z,87.71
2019-03-17T04:15:12.189Z,88.25
2019-03-17T04:17:41.231Z,88.16
2019-03-17T04:20:10.886Z,87.68
2019-03-17T04:22:39.926Z,87.42
2019-03-17T04:25:09.238Z,88.27
2019-03-17T04:27:38.606Z,87.59
2019-03-17T04:30:08.355Z,87.15
2019-03-17T04:32:37.815Z,87.62
2019-03-17T04:35:07.036Z,86.80
2019-03-17T04:37:36.075Z,86.64
2019-03-17T04:40:05.499Z,86.46
2019-03-17T04:42:34.862Z,86.75
2019-03-17T04:45:03.918Z,86.73
2019-03-17T04:47:33.029Z,86.48
2019-03-17T04:50:02.055Z,87.30
2019-03-17T04:52:31.108Z,87.25
2019-03-17T04:55:00.373Z,87.03
2019-03-17T04:57:29.332Z,86.69
2019-03-17T04:59:58.359Z,86.77
2019-03-17T05:02:27.371Z,87.49
2019-03-17T05:04:56.396Z,87.22
2019-03-17T05:07:25.448Z,87.00
2019-03-17T05:09:54.753Z,87.41
2019-03-17T05:12:23.772Z,87.67
2019-03-17T05:14:52.768Z,88.05
2019-03-17T05:17:21.796Z,87.72
2019-03-17T05:19:50.851Z,87.42
2019-03-17T05:22:19.859Z,87.18
2019-03-17T05:24:49.254Z,87.55
2019-03-17T05:27:18.282Z,87.13
2019-03-17T05:29:49.590Z,87.18
2019-03-17T05:32:18.916Z,87.05
2019-03-17T05:34:48.320Z,87.08
2019-03-17T05:37:17.674Z,87.41
2019-03-17T05:39:46.680Z,87.54
2019-03-17T05:42:16.024Z,87.64
2019-03-17T05:44:45.050Z,87.62
2019-03-17T05:47:14.399Z,88.37
2019-03-17T05:49:43.415Z,87.53
2019-03-17T05:52:12.438Z,86.98
2019-03-17T05:54:41.522Z,87.26
2019-03-17T05:57:10.545Z,86.92
2019-03-17T05:59:39.873Z,87.53
2019-03-17T06:02:08.927Z,86.68
2019-03-17T06:04:37.940Z,86.39
2019-03-17T06:07:17.961Z,86.18
2019-03-17T06:09:37.708Z,86.10
2019-03-17T06:12:06.792Z,85.00
2019-03-17T06:14:35.804Z,84.63
2019-03-17T06:17:04.820Z,84.14
2019-03-17T06:19:34.238Z,83.98
2019-03-17T06:22:03.264Z,84.33
2019-03-17T06:24:32.292Z,84.59
2019-03-17T06:27:01.590Z,84.85
2019-03-17T06:29:30.612Z,83.54
2019-03-17T06:31:59.620Z,84.28
2019-03-17T06:34:28.657Z,83.99
2019-03-17T06:36:57.704Z,83.41
2019-03-17T06:39:26.688Z,83.53
2019-03-17T06:41:56.072Z,83.56
2019-03-17T06:44:25.090Z,83.19
2019-03-17T06:46:54.457Z,83.54
2019-03-17T06:49:23.487Z,83.66
2019-03-17T06:51:52.524Z,83.32
2019-03-17T06:54:21.517Z,82.05
2019-03-17T06:56:50.928Z,82.71
2019-03-17T06:59:19.932Z,83.00
2019-03-17T07:01:48.959Z,82.92
2019-03-17T07:04:17.969Z,82.10
2019-03-17T07:06:47.016Z,81.79
2019-03-17T07:09:16.016Z,82.36
2019-03-17T07:11:45.080Z,82.06
2019-03-17T07:14:14.100Z,82.10
2019-03-17T07:16:43.152Z,82.96
2019-03-17T07:19:12.832Z,81.21
2019-03-17T07:21:41.848Z,82.69
2019-03-17T07:24:10.851Z,81.96
2019-03-17T07:26:39.978Z,82.65
2019-03-17T07:29:09.045Z,82.65
2019-03-17T07:31:38.048Z,82.53
2019-03-17T07:34:07.062Z,82.82
2019-03-17T07:36:36.083Z,82.99
2019-03-17T07:39:11.923Z,82.72
2019-03-17T07:41:38.232Z,82.17
2019-03-17T07:44:07.255Z,82.89
2019-03-17T07:46:36.328Z,82.24
2019-03-17T07:49:05.336Z,81.87
2019-03-17T07:51:34.368Z,80.98
2019-03-17T07:54:03.364Z,80.17
2019-03-17T07:56:32.686Z,80.79
2019-03-17T07:59:01.746Z,80.57
2019-03-17T08:01:31.092Z,80.09
2019-03-17T08:04:00.114Z,80.13
2019-03-17T08:06:29.506Z,79.69
2019-03-17T08:08:58.860Z,78.72
2019-03-17T08:11:28.256Z,78.47
2019-03-17T08:13:57.301Z,78.19
2019-03-17T08:16:26.636Z,77.04
2019-03-17T08:18:56.026Z,77.16
2019-03-17T08:21:25.328Z,76.38
2019-03-17T08:23:54.365Z,76.13
2019-03-17T08:26:23.398Z,76.29
2019-03-17T08:28:52.468Z,75.94
2019-03-17T08:31:21.478Z,76.41
2019-03-17T08:33:50.502Z,75.11
2019-03-17T08:36:19.580Z,75.57
2019-03-17T08:38:48.593Z,75.84
2019-03-17T08:41:17.614Z,75.16
2019-03-17T08:43:54.197Z,74.91
2019-03-17T08:46:17.765Z,75.18
2019-03-17T08:48:47.122Z,73.82
2019-03-17T08:51:16.487Z,72.92
2019-03-17T08:53:45.486Z,72.05
2019-03-17T08:56:14.544Z,69.48
2019-03-17T08:58:43.540Z,67.96
2019-03-17T09:01:13.120Z,64.61
2019-03-17T09:03:42.282Z,64.61
2019-03-17T09:06:11.300Z,66.93
2019-03-17T09:08:40.427Z,66.44
2019-03-17T09:11:09.713Z,67.26
2019-03-17T09:13:38.736Z,66.18
2019-03-17T09:16:07.778Z,67.23
2019-03-17T09:18:36.795Z,68.37
2019-03-17T09:21:06.163Z,69.44
2019-03-17T09:23:35.448Z,71.05
2019-03-17T09:26:05.077Z,67.54
2019-03-17T09:28:34.126Z,67.77
2019-03-17T09:31:06.080Z,67.37
2019-03-17T09:33:34.174Z,66.57
2019-03-17T09:36:03.459Z,67.39
2019-03-17T09:38:32.629Z,68.54
2019-03-17T09:41:01.614Z,70.36
2019-03-17T09:43:30.832Z,64.20
2019-03-17T09:46:00.204Z,66.01
2019-03-17T09:48:29.201Z,59.86
2019-03-17T09:50:58.527Z,59.86
2019-03-17T09:53:28.728Z,57.18
2019-03-17T09:55:57.887Z,53.67
2019-03-17T09:58:26.948Z,50.02
2019-03-17T10:00:56.217Z,47.76
2019-03-17T10:03:25.894Z,48.34
2019-03-17T10:05:54.899Z,50.29
2019-03-17T10:08:24.044Z,53.19
2019-03-17T10:10:53.060Z,50.60
2019-03-17T10:13:22.414Z,49.65
2019-03-17T10:15:51.435Z,50.40
2019-03-17T10:18:20.462Z,54.53
2019-03-17T10:20:49.800Z,56.82
2019-03-17T10:23:19.068Z,59.27
2019-03-17T10:25:48.176Z,58.88
2019-03-17T10:28:17.186Z,56.93
2019-03-17T10:30:46.507Z,53.27
2019-03-17T10:33:15.711Z,55.83
2019-03-17T10:35:44.741Z,57.42
2019-03-17T10:38:13.762Z,59.28
2019-03-17T10:40:43.111Z,58.36
2019-03-17T10:43:12.532Z,60.00
2019-03-17T10:45:41.606Z,53.07
2019-03-17T10:48:10.621Z,50.95
2019-03-17T10:50:49.019Z,50.41
2019-03-17T10:53:10.726Z,51.19
2019-03-17T10:55:39.784Z,53.17
2019-03-17T10:58:09.141Z,56.06
2019-03-17T11:00:38.448Z,53.58
2019-03-17T11:03:07.493Z,53.74
2019-03-17T11:05:36.485Z,53.74
2019-03-17T11:08:05.867Z,52.01
2019-03-17T11:10:34.901Z,50.96
2019-03-17T11:13:03.920Z,48.82
2019-03-17T11:15:32.958Z,45.49
2019-03-17T11:18:01.959Z,45.54
2019-03-17T11:20:31.318Z,44.90
2019-03-17T11:23:00.346Z,51.87
2019-03-17T11:25:29.374Z,51.88
2019-03-17T11:27:58.706Z,54.88
2019-03-17T11:30:28.040Z,54.48
2019-03-17T11:32:57.382Z,57.03
2019-03-17T11:35:26.843Z,57.84
2019-03-17T11:37:56.216Z,55.97
2019-03-17T11:40:26.007Z,58.68
2019-03-17T11:42:55.399Z,56.72
2019-03-17T11:45:24.516Z,57.00
2019-03-17T11:47:53.948Z,59.08
2019-03-17T11:50:23.715Z,59.27
2019-03-17T11:52:53.421Z,60.41
2019-03-17T11:55:22.731Z,60.37
2019-03-17T11:57:51.738Z,61.92
2019-03-17T12:00:20.780Z,59.85
2019-03-17T12:02:50.148Z,57.51
2019-03-17T12:05:19.172Z,57.10
2019-03-17T12:07:48.941Z,58.48
2019-03-17T12:10:19.027Z,54.66
2019-03-17T12:12:48.110Z,53.64
2019-03-17T12:15:17.634Z,57.47
2019-03-17T12:17:46.675Z,56.38
2019-03-17T12:20:16.044Z,55.27
2019-03-17T12:22:45.121Z,52.19
2019-03-17T12:25:14.956Z,50.60
2019-03-17T12:27:44.293Z,49.06
2019-03-17T12:30:19.234Z,48.01
2019-03-17T12:32:48.429Z,48.35
2019-03-17T12:35:17.506Z,49.90
2019-03-17T12:37:47.228Z,48.49
2019-03-17T12:40:16.386Z,49.12
2019-03-17T12:42:45.797Z,50.81
2019-03-17T12:45:15.027Z,54.25
2019-03-17T12:47:44.439Z,53.68
2019-03-17T12:50:14.211Z,53.04
2019-03-17T12:52:43.245Z,53.04
2019-03-17T12:55:15.245Z,50.70
2019-03-17T12:57:44.582Z,53.02
2019-03-17T13:00:15.108Z,53.02
2019-03-17T13:02:44.169Z,54.88
2019-03-17T13:05:14.193Z,54.29
2019-03-17T13:07:43.209Z,57.17
2019-03-17T13:10:16.130Z,52.66
2019-03-17T13:12:44.987Z,51.63
2019-03-17T13:15:14.029Z,51.24
2019-03-17T13:17:43.115Z,53.20
2019-03-17T13:20:12.977Z,50.08
2019-03-17T13:22:41.988Z,50.08
2019-03-17T13:25:13.379Z,48.89
2019-03-17T13:27:42.469Z,50.08
2019-03-17T13:30:12.490Z,50.29
2019-03-17T13:32:41.515Z,51.31
2019-03-17T13:35:10.595Z,50.81
2019-03-17T13:37:39.658Z,51.14
2019-03-17T13:40:10.719Z,49.08
2019-03-17T13:42:40.105Z,49.46
2019-03-17T13:45:09.954Z,47.59
2019-03-17T13:47:38.995Z,47.48
2019-03-17T13:50:10.137Z,47.44
2019-03-17T13:52:39.185Z,49.08
2019-03-17T13:55:08.624Z,51.21
2019-03-17T13:57:37.899Z,52.34
2019-03-17T14:00:09.244Z,53.23
2019-03-17T14:02:38.288Z,57.88
2019-03-17T14:05:07.899Z,57.88
2019-03-17T14:07:37.346Z,57.15
2019-03-17T14:10:13.784Z,53.84
2019-03-17T14:12:39.623Z,53.84
2019-03-17T14:15:09.999Z,57.52
2019-03-17T14:17:38.985Z,57.52
2019-03-17T14:20:11.150Z,60.02
2019-03-17T14:22:40.209Z,60.21
2019-03-17T14:25:12.910Z,63.98
2019-03-17T14:27:41.923Z,64.33
2019-03-17T14:30:13.043Z,62.55
2019-03-17T14:32:42.653Z,62.11
2019-03-17T14:35:11.671Z,60.22
2019-03-17T14:37:40.711Z,61.93
2019-03-17T14:40:11.036Z,59.63
2019-03-17T14:42:40.053Z,61.10
2019-03-17T14:45:09.936Z,60.36
2019-03-17T14:47:39.024Z,60.36
2019-03-17T14:50:10.097Z,58.21
2019-03-17T14:52:39.455Z,54.78
2019-03-17T14:55:08.574Z,54.78
2019-03-17T14:57:37.607Z,55.13
2019-03-17T15:00:08.839Z,56.76
2019-03-17T15:02:37.855Z,58.58
2019-03-17T15:05:07.847Z,58.58
2019-03-17T15:07:37.185Z,59.73
2019-03-17T15:10:07.710Z,61.25
2019-03-17T15:12:37.047Z,64.13
2019-03-17T15:15:07.354Z,63.33
2019-03-17T15:17:36.385Z,64.60
2019-03-17T15:20:06.961Z,63.99
2019-03-17T15:22:35.985Z,66.61
2019-03-17T15:25:05.839Z,66.90
2019-03-17T15:27:35.162Z,65.67
2019-03-17T15:30:05.101Z,68.58
2019-03-17T15:32:34.135Z,66.85
2019-03-17T15:35:03.514Z,67.69
2019-03-17T15:37:32.606Z,68.67
2019-03-17T15:40:01.641Z,67.98
2019-03-17T15:42:31.063Z,67.07
2019-03-17T15:45:00.169Z,69.17
2019-03-17T15:47:29.393Z,69.39
2019-03-17T15:49:58.509Z,70.68
2019-03-17T15:52:28.175Z,71.55
2019-03-17T15:54:57.192Z,73.09
2019-03-17T15:57:26.257Z,74.35
2019-03-17T15:59:55.615Z,75.29
2019-03-17T16:02:24.675Z,75.75
2019-03-17T16:04:53.695Z,73.47
2019-03-17T16:07:23.051Z,70.23
2019-03-17T16:09:52.055Z,66.24
2019-03-17T16:12:21.146Z,65.97
2019-03-17T16:14:50.723Z,68.93
2019-03-17T16:17:20.156Z,70.38
2019-03-17T16:19:49.177Z,68.43
2019-03-17T16:22:18.236Z,69.31
2019-03-17T16:24:47.311Z,70.75
2019-03-17T16:27:16.552Z,69.02
2019-03-17T16:29:45.539Z,70.83
2019-03-17T16:32:14.891Z,69.85
2019-03-17T16:34:43.968Z,68.74
2019-03-17T16:37:13.001Z,69.78
2019-03-17T16:39:42.068Z,67.73
2019-03-17T16:42:11.099Z,65.02
2019-03-17T16:44:40.155Z,66.96
2019-03-17T16:47:09.428Z,65.87
2019-03-17T16:49:38.453Z,65.76
2019-03-17T16:52:07.518Z,65.99
2019-03-17T16:54:36.611Z,67.54
2019-03-17T16:57:05.950Z,67.28
2019-03-17T16:59:35.003Z,66.97
2019-03-17T17:02:04.038Z,68.89
2019-03-17T17:04:33.068Z,69.14
2019-03-17T17:07:02.622Z,68.73
2019-03-17T17:09:31.653Z,67.67
2019-03-17T17:12:01.061Z,67.38
2019-03-17T17:14:30.087Z,67.16
2019-03-17T17:16:59.120Z,68.52
2019-03-17T17:19:28.571Z,65.85
2019-03-17T17:21:58.892Z,71.99
2019-03-17T17:24:28.055Z,66.87
2019-03-17T17:26:57.129Z,65.62
2019-03-17T17:29:26.143Z,66.60
2019-03-17T17:31:55.161Z,63.91
2019-03-17T17:34:24.201Z,63.09
2019-03-17T17:36:53.536Z,61.21
2019-03-17T17:39:22.566Z,60.60
2019-03-17T17:41:51.865Z,62.01
2019-03-17T17:44:21.204Z,63.65
2019-03-17T17:46:50.239Z,65.10
2019-03-17T17:49:19.595Z,64.47
2019-03-17T17:51:49.185Z,65.84
2019-03-17T17:54:18.299Z,65.22
2019-03-17T17:56:47.404Z,65.37
2019-03-17T17:59:16.904Z,66.59
2019-03-17T18:01:46.100Z,66.42
2019-03-17T18:04:15.186Z,66.76
2019-03-17T18:06:44.522Z,67.50
2019-03-17T18:09:13.525Z,68.03
2019-03-17T18:11:42.667Z,68.59
2019-03-17T18:14:11.696Z,68.45
2019-03-17T18:16:41.732Z,69.93
2019-03-17T18:19:10.850Z,69.10
2019-03-17T18:21:39.924Z,68.40
2019-03-17T18:24:08.969Z,68.70
2019-03-17T18:26:38.047Z,68.41
2019-03-17T18:29:07.091Z,69.17
2019-03-17T18:31:36.452Z,68.94
2019-03-17T18:34:05.539Z,68.25
2019-03-17T18:36:34.567Z,68.95
2019-03-17T18:39:04.559Z,71.38
2019-03-17T18:41:33.895Z,73.79
2019-03-17T18:44:02.926Z,72.16
2019-03-17T18:46:31.958Z,73.81
2019-03-17T18:49:01.274Z,72.02
2019-03-17T18:51:30.345Z,73.33
2019-03-17T18:53:59.401Z,74.32
2019-03-17T18:56:28.411Z,75.35
2019-03-17T18:58:57.465Z,76.24
2019-03-17T19:01:26.851Z,76.55
2019-03-17T19:03:55.875Z,77.32
2019-03-17T19:06:24.968Z,78.63
2019-03-17T19:08:54.140Z,77.22
2019-03-17T19:11:23.182Z,79.15
2019-03-17T19:13:52.470Z,79.60
2019-03-17T19:16:21.494Z,79.92
2019-03-17T19:18:51.093Z,81.72
2019-03-17T19:21:20.083Z,82.13
2019-03-17T19:23:49.176Z,81.61
2019-03-17T19:26:18.182Z,83.46
2019-03-17T19:28:47.254Z,83.55
2019-03-17T19:31:16.519Z,82.86
2019-03-17T19:33:46.162Z,82.78
2019-03-17T19:36:15.193Z,83.67
2019-03-17T19:38:44.242Z,83.45
2019-03-17T19:41:13.258Z,80.71
2019-03-17T19:43:42.282Z,82.58
2019-03-17T19:46:11.623Z,83.63
2019-03-17T19:48:40.911Z,83.50
2019-03-17T19:51:09.939Z,82.29
2019-03-17T19:53:39.259Z,82.24
2019-03-17T19:56:08.288Z,83.14
2019-03-17T19:58:40.438Z,83.08
2019-03-17T20:01:08.440Z,83.96
2019-03-17T20:03:37.738Z,82.96
2019-03-17T20:06:07.033Z,84.80
2019-03-17T20:08:36.420Z,84.41
2019-03-17T20:11:05.848Z,85.72
2019-03-17T20:13:34.959Z,86.28
2019-03-17T20:16:04.246Z,85.98
2019-03-17T20:18:33.278Z,85.64
2019-03-17T20:21:02.281Z,86.70
2019-03-17T20:23:31.577Z,85.72
2019-03-17T20:26:00.592Z,85.73
2019-03-17T20:28:29.931Z,84.77
2019-03-17T20:30:58.961Z,84.76
2019-03-17T20:33:27.988Z,85.26
2019-03-17T20:35:57.031Z,85.86
2019-03-17T20:38:26.053Z,85.70
2019-03-17T20:40:55.114Z,86.09
2019-03-17T20:43:34.733Z,86.02
2019-03-17T20:45:55.409Z,86.20
2019-03-17T20:48:25.346Z,86.19
2019-03-17T20:50:54.668Z,87.58
2019-03-17T20:53:23.745Z,88.15
2019-03-17T20:55:53.092Z,87.17
2019-03-17T20:58:22.399Z,87.73
2019-03-17T21:00:51.433Z,87.40
2019-03-17T21:03:20.448Z,87.94
2019-03-17T21:05:49.468Z,88.36
2019-03-17T21:08:18.770Z,88.01
2019-03-17T21:10:49.970Z,87.64
2019-03-17T21:13:19.115Z,88.08
2019-03-17T21:15:48.161Z,88.70
2019-03-17T21:18:17.479Z,88.44
2019-03-17T21:20:46.763Z,88.53
2019-03-17T21:23:15.760Z,88.16
2019-03-17T21:25:44.879Z,87.91
2019-03-17T21:28:13.925Z,87.06
2019-03-17T21:30:42.996Z,86.59
2019-03-17T21:33:12.588Z,87.60
2019-03-17T21:35:41.631Z,88.12
2019-03-17T21:38:10.879Z,88.85
2019-03-17T21:40:56.166Z,88.03
2019-03-17T21:43:11.446Z,88.45
2019-03-17T21:45:40.458Z,88.33
2019-03-17T21:48:09.481Z,87.81
2019-03-17T21:50:38.478Z,88.64
2019-03-17T21:53:07.505Z,88.25
2019-03-17T21:55:37.087Z,88.92
2019-03-17T21:58:08.215Z,88.65
2019-03-17T22:00:36.854Z,88.69
2019-03-17T22:03:05.857Z,87.58
2019-03-17T22:05:35.405Z,89.00
2019-03-17T22:08:04.409Z,89.30
2019-03-17T22:10:34.016Z,89.76
2019-03-17T22:13:03.044Z,89.80
2019-03-17T22:15:32.033Z,90.03
2019-03-17T22:18:01.060Z,90.40
2019-03-17T22:20:30.049Z,90.26
2019-03-17T22:22:59.324Z,89.00
2019-03-17T22:25:28.602Z,89.91
2019-03-17T22:28:07.678Z,89.21
2019-03-17T22:30:28.630Z,89.25
2019-03-17T22:32:57.693Z,90.22
2019-03-17T22:35:26.752Z,89.73
2019-03-17T22:37:55.783Z,89.77
2019-03-17T22:40:24.788Z,89.69
2019-03-17T22:42:54.068Z,90.30
2019-03-17T22:45:23.083Z,90.04
2019-03-17T22:47:52.109Z,89.84
2019-03-17T22:50:21.142Z,90.08
2019-03-17T22:52:50.159Z,90.16
2019-03-17T22:55:19.228Z,89.95
2019-03-17T22:57:48.222Z,88.70
2019-03-17T23:00:21.752Z,88.46
2019-03-17T23:02:50.756Z,88.71
2019-03-17T23:05:20.180Z,88.63
2019-03-17T23:07:49.564Z,87.46
2019-03-17T23:10:18.694Z,87.56
2019-03-17T23:12:48.483Z,87.48
2019-03-17T23:15:17.624Z,88.59
2019-03-17T23:17:47.396Z,89.51
2019-03-17T23:20:17.017Z,88.98
2019-03-17T23:22:46.312Z,88.42
2019-03-17T23:25:15.659Z,88.78
2019-03-17T23:27:45.020Z,89.01
2019-03-17T23:30:14.402Z,88.35
2019-03-17T23:32:43.428Z,88.24
2019-03-17T23:35:12.480Z,88.37
2019-03-17T23:37:41.529Z,88.46
2019-03-17T23:40:11.054Z,88.96
2019-03-17T23:42:40.414Z,88.76
2019-03-17T23:45:10.078Z,89.62
2019-03-17T23:47:39.088Z,90.26
2019-03-17T23:50:08.268Z,90.12
2019-03-17T23:52:37.263Z,90.70
2019-03-17T23:55:06.486Z,89.73
2019-03-17T23:57:35.498Z,89.23
